| time (UTC) | temp F | wind direction | speed MPH | gust MPH | rain 1hr in | rain 24hr in | rain mn in | humidity % | barometer mb |
| 20260906223017 | 83 | 31 | 8.0 | 11.0 | 0.00 | 0.00 | 0.00 | 33 | 1002.9 |
| 20260906221558 | 83 | 63 | 3.0 | 6.0 | 0.00 | 0.00 | 0.00 | 32 | 1003.2 |
| 20260906220105 | 83 | 63 | 3.0 | 7.0 | 0.00 | 0.00 | 0.00 | 33 | 1003.5 |
| 20260906214534 | 82 | 100 | 2.0 | 11.0 | 0.00 | 0.00 | 0.00 | 34 | 1003.8 |
| 20260906213035 | 82 | 122 | 5.0 | 9.0 | 0.00 | 0.00 | 0.00 | 34 | 1004.0 |
| 20260906211513 | 82 | 24 | 5.0 | 10.0 | 0.00 | 0.00 | 0.00 | 35 | 1004.1 |
| 20260906210019 | 81 | 128 | 5.0 | 8.0 | 0.00 | 0.00 | 0.00 | 36 | 1004.2 |
| 20260906204551 | 80 | 140 | 5.0 | 10.0 | 0.00 | 0.00 | 0.00 | 37 | 1004.5 |
| 20260906203049 | 80 | 132 | 5.0 | 11.0 | 0.00 | 0.00 | 0.00 | 37 | 1004.6 |
| 20260906201530 | 80 | 103 | 5.0 | 11.0 | 0.00 | 0.00 | 0.00 | 37 | 1004.8 |
| 20260906200030 | 79 | 32 | 5.0 | 9.0 | 0.00 | 0.00 | 0.00 | 35 | 1005.2 |
| 20260906194507 | 79 | 54 | 7.0 | 11.0 | 0.00 | 0.00 | 0.00 | 37 | 1005.5 |
| 20260906193006 | 79 | 40 | 4.0 | 8.0 | 0.00 | 0.00 | 0.00 | 36 | 1005.9 |
| 20260906191555 | 77 | 276 | 3.0 | 6.0 | 0.00 | 0.00 | 0.00 | 38 | 1006.1 |
| 20260906190042 | 77 | 59 | 0.0 | 10.0 | 0.00 | 0.00 | 0.00 | 40 | 1006.5 |
| 20260906184522 | 77 | 117 | 4.0 | 7.0 | 0.00 | 0.00 | 0.00 | 40 | 1006.9 |
| 20260906183024 | 76 | 84 | 5.0 | 9.0 | 0.00 | 0.00 | 0.00 | 40 | 1007.1 |
| 20260906181559 | 76 | 96 | 5.0 | 9.0 | 0.00 | 0.00 | 0.00 | 41 | 1007.5 |
| 20260906180111 | 75 | 82 | 5.0 | 8.0 | 0.00 | 0.00 | 0.00 | 42 | 1007.8 |
| 20260906174538 | 74 | 104 | 4.0 | 8.0 | 0.00 | 0.00 | 0.00 | 44 | 1008.1 |
| 20260906173032 | 74 | 92 | 3.0 | 6.0 | 0.00 | 0.00 | 0.00 | 44 | 1008.1 |
| 20260906171511 | 73 | 144 | 2.0 | 7.0 | 0.00 | 0.00 | 0.00 | 47 | 1008.4 |
| 20260906170009 | 72 | 57 | 3.0 | 7.0 | 0.00 | 0.00 | 0.00 | 48 | 1008.5 |
| 20260906164549 | 72 | 105 | 2.0 | 7.0 | 0.00 | 0.00 | 0.00 | 48 | 1008.6 |
| 20260906163107 | 71 | 181 | 3.0 | 7.0 | 0.00 | 0.00 | 0.00 | 48 | 1008.8 |
| 20260906161528 | 70 | 128 | 5.0 | 8.0 | 0.00 | 0.00 | 0.00 | 49 | 1008.8 |
| 20260906160027 | 70 | 169 | 4.0 | 7.0 | 0.00 | 0.00 | 0.00 | 49 | 1008.8 |
| 20260906154507 | 69 | 194 | 1.0 | 8.0 | 0.00 | 0.00 | 0.00 | 52 | 1008.8 |
| 20260906153012 | 68 | 190 | 3.0 | 7.0 | 0.00 | 0.00 | 0.00 | 50 | 1008.9 |
| 20260906151544 | 67 | 141 | 5.0 | 7.0 | 0.00 | 0.00 | 0.00 | 51 | 1009.2 |
| 20260906150043 | 66 | 141 | 3.0 | 8.0 | 0.00 | 0.00 | 0.00 | 54 | 1009.3 |
| 20260906144520 | 65 | 150 | 3.0 | 5.0 | 0.00 | 0.00 | 0.00 | 53 | 1009.6 |
| 20260906143014 | 65 | 165 | 2.0 | 4.0 | 0.00 | 0.00 | 0.00 | 50 | 1009.8 |
| 20260906141551 | 63 | 321 | 1.0 | 3.0 | 0.00 | 0.00 | 0.00 | 53 | 1009.8 |
| 20260906140055 | 60 | 321 | 1.0 | 4.0 | 0.00 | 0.00 | 0.00 | 56 | 1009.9 |
| 20260906134531 | 58 | 177 | 1.0 | 3.0 | 0.00 | 0.00 | 0.00 | 62 | 1009.8 |
| 20260906133024 | 56 | 177 | 1.0 | 6.0 | 0.00 | 0.00 | 0.00 | 64 | 1009.7 |
| 20260906131504 | 55 | 212 | 1.0 | 4.0 | 0.00 | 0.00 | 0.00 | 63 | 1009.7 |
| 20260906130004 | 55 | 212 | 0.0 | 3.0 | 0.00 | 0.00 | 0.00 | 60 | 1009.5 |
| 20260906124542 | 55 | 212 | 1.0 | 3.0 | 0.00 | 0.00 | 0.00 | 59 | 1009.5 |
| 20260906123039 | 56 | 212 | 1.0 | 4.0 | 0.00 | 0.00 | 0.00 | 58 | 1009.4 |
| 20260906121522 | 56 | 212 | 0.0 | 3.0 | 0.00 | 0.00 | 0.00 | 59 | 1009.3 |
| 20260906120015 | 58 | 212 | 1.0 | 4.0 | 0.00 | 0.00 | 0.00 | 56 | 1009.3 |
| 20260906114558 | 58 | 212 | 0.0 | 1.0 | 0.00 | 0.00 | 0.00 | 57 | 1009.3 |
| 20260906113055 | 59 | 212 | 3.0 | 4.0 | 0.00 | 0.00 | 0.00 | 56 | 1009.5 |
| 20260906113011 | 59 | 212 | 4.0 | 4.0 | 0.00 | 0.00 | 0.00 | 56 | 1009.4 |
| 20260906111536 | 60 | 171 | 0.0 | 2.0 | 0.00 | 0.00 | 0.00 | 55 | 1009.2 |
| 20260906110034 | 61 | 360 | 0.0 | 2.0 | 0.00 | 0.00 | 0.00 | 52 | 1009.4 |
| 20260906104514 | 63 | 198 | 5.0 | 8.0 | 0.00 | 0.00 | 0.00 | 46 | 1009.4 |
| 20260906103013 | 64 | 167 | 1.0 | 9.0 | 0.00 | 0.00 | 0.00 | 45 | 1009.1 |
| 20260906101558 | 64 | 280 | 3.0 | 7.0 | 0.00 | 0.00 | 0.00 | 44 | 1009.0 |
| 20260906100055 | 64 | 273 | 5.0 | 8.0 | 0.00 | 0.00 | 0.00 | 46 | 1009.0 |
| 20260906094538 | 64 | 255 | 7.0 | 9.0 | 0.00 | 0.00 | 0.00 | 44 | 1008.9 |
| 20260906093051 | 63 | 287 | 5.0 | 6.0 | 0.00 | 0.00 | 0.00 | 46 | 1008.8 |
| 20260906091519 | 64 | 348 | 2.0 | 4.0 | 0.00 | 0.00 | 0.00 | 46 | 1008.8 |
| 20260906090019 | 64 | 292 | 4.0 | 8.0 | 0.00 | 0.00 | 0.00 | 44 | 1008.7 |
| 20260906084502 | 65 | 259 | 2.0 | 3.0 | 0.00 | 0.00 | 0.00 | 44 | 1008.9 |
| 20260906083001 | 64 | 241 | 4.0 | 7.0 | 0.00 | 0.00 | 0.00 | 45 | 1008.8 |
| 20260906081546 | 65 | 268 | 3.0 | 9.0 | 0.00 | 0.00 | 0.00 | 43 | 1008.7 |
| 20260906080053 | 65 | 329 | 3.0 | 4.0 | 0.00 | 0.00 | 0.00 | 44 | 1008.7 |
| 20260906074527 | 65 | 234 | 0.0 | 4.0 | 0.00 | 0.00 | 0.00 | 43 | 1008.9 |
| 20260906073028 | 66 | 219 | 5.0 | 8.0 | 0.00 | 0.00 | 0.00 | 42 | 1008.8 |
| 20260906071507 | 66 | 205 | 4.0 | 6.0 | 0.00 | 0.00 | 0.00 | 42 | 1008.6 |
| 20260906070007 | 66 | 302 | 3.0 | 12.0 | 0.00 | 0.00 | 0.00 | 41 | 1008.5 |
| 20260906064550 | 67 | 339 | 4.0 | 8.0 | 0.00 | 0.00 | 0.00 | 41 | 1008.6 |
| 20260906063052 | 68 | 305 | 5.0 | 11.0 | 0.00 | 0.00 | 0.00 | 40 | 1008.3 |
| 20260906061537 | 70 | 313 | 7.0 | 16.0 | 0.00 | 0.00 | 0.00 | 38 | 1008.4 |
| 20260906060031 | 71 | 355 | 10.0 | 15.0 | 0.00 | 0.00 | 0.00 | 43 | 1008.4 |
| 20260906054517 | 70 | 280 | 5.0 | 12.0 | 0.00 | 0.00 | 0.00 | 40 | 1008.3 |
| 20260906053020 | 71 | 336 | 11.0 | 17.0 | 0.00 | 0.00 | 0.00 | 40 | 1008.4 |
| 20260906051613 | 70 | 314 | 9.0 | 14.0 | 0.00 | 0.00 | 0.00 | 38 | 1008.3 |
| 20260906050055 | 72 | 9 | 10.0 | 16.0 | 0.00 | 0.00 | 0.00 | 39 | 1008.2 |
| 20260906044555 | 72 | 10 | 12.0 | 17.0 | 0.00 | 0.00 | 0.00 | 39 | 1008.3 |
| 20260906043037 | 72 | 360 | 12.0 | 18.0 | 0.00 | 0.00 | 0.00 | 38 | 1008.4 |
| 20260906041544 | 73 | 348 | 13.0 | 19.0 | 0.00 | 0.00 | 0.00 | 37 | 1008.3 |
| 20260906040017 | 73 | 360 | 12.0 | 21.0 | 0.00 | 0.00 | 0.00 | 36 | 1008.2 |
| 20260906034525 | 73 | 30 | 9.0 | 18.0 | 0.00 | 0.00 | 0.00 | 35 | 1008.1 |
| 20260906033102 | 73 | 355 | 11.0 | 20.0 | 0.00 | 0.00 | 0.00 | 36 | 1008.0 |
| 20260906031601 | 74 | 360 | 12.0 | 21.0 | 0.00 | 0.00 | 0.00 | 35 | 1007.9 |
| 20260906030041 | 74 | 18 | 14.0 | 19.0 | 0.00 | 0.00 | 0.00 | 35 | 1007.8 |
| 20260906024540 | 74 | 5 | 11.0 | 19.0 | 0.00 | 0.00 | 0.00 | 34 | 1007.5 |
| 20260906023024 | 74 | 25 | 9.0 | 15.0 | 0.00 | 0.00 | 0.00 | 33 | 1007.4 |
| 20260906021525 | 74 | 22 | 12.0 | 17.0 | 0.00 | 0.00 | 0.00 | 33 | 1007.3 |
| 20260906020005 | 74 | 9 | 9.0 | 12.0 | 0.00 | 0.00 | 0.00 | 33 | 1007.2 |
| 20260906014512 | 75 | 17 | 8.0 | 15.0 | 0.00 | 0.00 | 0.00 | 32 | 1007.1 |
| 20260906013046 | 75 | 11 | 9.0 | 13.0 | 0.00 | 0.00 | 0.00 | 32 | 1007.2 |
| 20260906011559 | 76 | 5 | 12.0 | 16.0 | 0.00 | 0.00 | 0.00 | 31 | 1007.3 |
| 20260906010029 | 77 | 22 | 12.0 | 17.0 | 0.00 | 0.00 | 0.00 | 29 | 1007.2 |
| 20260906004528 | 78 | 348 | 13.0 | 17.0 | 0.00 | 0.00 | 0.00 | 29 | 1007.2 |
| 20260906003010 | 79 | 37 | 12.0 | 18.0 | 0.00 | 0.00 | 0.00 | 27 | 1007.0 |
| 20260906001509 | 80 | 32 | 13.0 | 17.0 | 0.00 | 0.00 | 0.00 | 27 | 1007.0 |
| 20260906000051 | 80 | 16 | 11.0 | 15.0 | 0.00 | 0.00 | 0.00 | 26 | 1007.0 |
| 20260905234551 | 80 | 65 | 10.0 | 15.0 | 0.00 | 0.00 | 0.00 | 27 | 1007.1 |
| 20260905233035 | 80 | 78 | 10.0 | 15.0 | 0.00 | 0.00 | 0.00 | 27 | 1006.9 |
| 20260905231530 | 79 | 58 | 11.0 | 18.0 | 0.00 | 0.00 | 0.00 | 27 | 1007.0 |
| 20260905230012 | 79 | 80 | 12.0 | 16.0 | 0.00 | 0.00 | 0.00 | 28 | 1007.0 |
| 20260905224518 | 79 | 86 | 13.0 | 17.0 | 0.00 | 0.00 | 0.00 | 29 | 1007.1 |